createdAt,value
2017-06-09T00:00:48.505Z,1018.75
2017-06-09T00:01:50.391Z,1018.73
2017-06-09T00:02:52.274Z,1018.71
2017-06-09T00:03:54.159Z,1018.71
2017-06-09T00:04:55.954Z,1018.72
2017-06-09T00:05:57.755Z,1018.70
2017-06-09T00:06:59.618Z,1018.74
2017-06-09T00:08:01.498Z,1018.72
2017-06-09T00:09:03.351Z,1018.69
2017-06-09T00:10:17.487Z,1018.68
2017-06-09T00:11:19.371Z,1018.70
2017-06-09T00:12:21.255Z,1018.67
2017-06-09T00:13:23.137Z,1018.70
2017-06-09T00:14:24.961Z,1018.73
2017-06-09T00:15:26.755Z,1018.73
2017-06-09T00:16:28.618Z,1018.72
2017-06-09T00:17:30.480Z,1018.70
2017-06-09T00:18:32.339Z,1018.70
2017-06-09T00:19:46.498Z,1018.73
2017-06-09T00:20:48.362Z,1018.72
2017-06-09T00:21:50.222Z,1018.73
2017-06-09T00:22:52.077Z,1018.74
2017-06-09T00:23:53.882Z,1018.74
2017-06-09T00:24:55.679Z,1018.74
2017-06-09T00:25:57.544Z,1018.73
2017-06-09T00:26:59.365Z,1018.77
2017-06-09T00:28:01.186Z,1018.76
2017-06-09T00:29:15.312Z,1018.69
2017-06-09T00:30:17.175Z,1018.69
2017-06-09T00:31:19.034Z,1018.70
2017-06-09T00:32:20.894Z,1018.69
2017-06-09T00:33:22.721Z,1018.68
2017-06-09T00:34:24.541Z,1018.67
2017-06-09T00:35:26.402Z,1018.64
2017-06-09T00:36:28.263Z,1018.58
2017-06-09T00:37:30.120Z,1018.55
2017-06-09T00:38:44.256Z,1018.59
2017-06-09T00:39:46.137Z,1018.59
2017-06-09T00:40:47.995Z,1018.54
2017-06-09T00:41:49.853Z,1018.55
2017-06-09T00:42:51.653Z,1018.54
2017-06-09T00:43:53.453Z,1018.53
2017-06-09T00:44:55.319Z,1018.47
2017-06-09T00:45:57.179Z,1018.45
2017-06-09T00:46:59.045Z,1018.44
2017-06-09T00:48:13.179Z,1018.41
2017-06-09T00:49:15.058Z,1018.45
2017-06-09T00:50:16.917Z,1018.44
2017-06-09T00:51:18.778Z,1018.45
2017-06-09T00:52:20.603Z,1018.47
2017-06-09T00:53:22.425Z,1018.44
2017-06-09T00:54:24.308Z,1018.46
2017-06-09T00:55:26.168Z,1018.46
2017-06-09T00:56:28.031Z,1018.45
2017-06-09T00:57:42.183Z,1018.41
2017-06-09T00:58:44.047Z,1018.43
2017-06-09T00:59:45.904Z,1018.41
2017-06-09T01:00:47.766Z,1018.39
2017-06-09T01:01:49.572Z,1018.41
2017-06-09T01:02:51.395Z,1018.37
2017-06-09T01:03:53.254Z,1018.39
2017-06-09T01:04:55.113Z,1018.44
2017-06-09T01:05:56.976Z,1018.38
2017-06-09T01:07:11.134Z,1018.37
2017-06-09T01:08:13.032Z,1018.39
2017-06-09T01:09:14.888Z,1018.33
2017-06-09T01:10:16.774Z,1018.37
2017-06-09T01:11:18.575Z,1018.32
2017-06-09T01:12:20.401Z,1018.30
2017-06-09T01:13:22.284Z,1018.31
2017-06-09T01:14:24.161Z,1018.30
2017-06-09T01:15:26.023Z,1018.30
2017-06-09T01:16:40.172Z,1018.27
2017-06-09T01:17:42.035Z,1018.31
2017-06-09T01:18:43.896Z,1018.28
2017-06-09T01:19:45.779Z,1018.30
2017-06-09T01:20:47.604Z,1018.28
2017-06-09T01:21:49.421Z,1018.28
2017-06-09T01:22:51.285Z,1018.21
2017-06-09T01:23:53.147Z,1018.19
2017-06-09T01:24:55.012Z,1018.17
2017-06-09T01:26:09.155Z,1018.17
2017-06-09T01:27:11.038Z,1018.16
2017-06-09T01:28:12.901Z,1018.13
2017-06-09T01:29:14.786Z,1018.12
2017-06-09T01:30:16.587Z,1018.14
2017-06-09T01:31:18.392Z,1018.16
2017-06-09T01:32:20.257Z,1018.10
2017-06-09T01:33:22.119Z,1018.07
2017-06-09T01:34:23.985Z,1018.05
2017-06-09T01:35:38.142Z,1018.04
2017-06-09T01:36:40.002Z,1018.03
2017-06-09T01:37:41.869Z,1018.04
2017-06-09T01:38:43.753Z,1018.05
2017-06-09T01:39:45.577Z,1018.06
2017-06-09T01:40:47.383Z,1018.06
2017-06-09T01:41:49.265Z,1018.03
2017-06-09T01:42:51.129Z,1018.01
2017-06-09T01:43:53.010Z,1018.01
2017-06-09T01:45:07.148Z,1017.96
2017-06-09T01:46:09.011Z,1017.97
2017-06-09T01:47:10.877Z,1017.92
2017-06-09T01:48:12.739Z,1017.92
2017-06-09T01:49:14.538Z,1017.89
2017-06-09T01:50:16.341Z,1017.94
2017-06-09T01:51:18.209Z,1017.88
2017-06-09T01:52:20.071Z,1017.90
2017-06-09T01:53:21.955Z,1017.84
2017-06-09T01:54:36.100Z,1017.82
2017-06-09T01:55:37.920Z,1017.83
2017-06-09T01:56:39.745Z,1017.80
2017-06-09T01:57:41.564Z,1017.78
2017-06-09T01:58:43.430Z,1017.80
2017-06-09T01:59:45.295Z,1017.78
2017-06-09T02:00:47.151Z,1017.75
2017-06-09T02:01:48.961Z,1017.74
2017-06-09T02:02:50.780Z,1017.73
2017-06-09T02:04:05.034Z,1017.69
2017-06-09T02:05:06.912Z,1017.71
2017-06-09T02:06:08.772Z,1017.70
2017-06-09T02:07:10.643Z,1017.73
2017-06-09T02:08:12.460Z,1017.71
2017-06-09T02:09:14.265Z,1017.73
2017-06-09T02:10:16.111Z,1017.69
2017-06-09T02:11:17.940Z,1017.68
2017-06-09T02:12:19.765Z,1017.67
2017-06-09T02:13:33.985Z,1017.67
2017-06-09T02:14:35.850Z,1017.66
2017-06-09T02:15:37.714Z,1017.66
2017-06-09T02:16:39.602Z,1017.63
2017-06-09T02:17:41.430Z,1017.65
2017-06-09T02:18:43.254Z,1017.69
2017-06-09T02:19:45.135Z,1017.66
2017-06-09T02:20:47.001Z,1017.63
2017-06-09T02:21:48.863Z,1017.63
2017-06-09T02:23:03.007Z,1017.62
2017-06-09T02:24:04.890Z,1017.59
2017-06-09T02:25:06.748Z,1017.60
2017-06-09T02:26:08.611Z,1017.60
2017-06-09T02:27:10.416Z,1017.57
2017-06-09T02:28:12.243Z,1017.56
2017-06-09T02:29:14.112Z,1017.57
2017-06-09T02:30:15.996Z,1017.57
2017-06-09T02:31:17.880Z,1017.56
2017-06-09T02:32:32.020Z,1017.55
2017-06-09T02:33:33.901Z,1017.54
2017-06-09T02:34:35.774Z,1017.58
2017-06-09T02:35:37.634Z,1017.54
2017-06-09T02:36:39.443Z,1017.57
2017-06-09T02:37:41.269Z,1017.57
2017-06-09T02:38:43.133Z,1017.55
2017-06-09T02:39:45.020Z,1017.56
2017-06-09T02:40:46.905Z,1017.54
2017-06-09T02:42:01.041Z,1017.53
2017-06-09T02:43:02.955Z,1017.54
2017-06-09T02:44:04.833Z,1017.53
2017-06-09T02:45:06.696Z,1017.48
2017-06-09T02:46:08.510Z,1017.52
2017-06-09T02:47:10.338Z,1017.54
2017-06-09T02:48:12.228Z,1017.56
2017-06-09T02:49:14.092Z,1017.56
2017-06-09T02:50:15.956Z,1017.60
2017-06-09T02:51:30.101Z,1017.61
2017-06-09T02:52:31.970Z,1017.60
2017-06-09T02:53:33.827Z,1017.59
2017-06-09T02:54:35.699Z,1017.60
2017-06-09T02:55:37.529Z,1017.63
2017-06-09T02:56:39.352Z,1017.62
2017-06-09T02:57:41.215Z,1017.61
2017-06-09T02:58:43.085Z,1017.63
2017-06-09T02:59:44.971Z,1017.66
2017-06-09T03:00:59.110Z,1017.65
2017-06-09T03:02:00.978Z,1017.67
2017-06-09T03:03:02.869Z,1017.70
2017-06-09T03:04:04.734Z,1017.74
2017-06-09T03:05:06.562Z,1017.81
2017-06-09T03:06:08.364Z,1017.78
2017-06-09T03:07:10.230Z,1017.83
2017-06-09T03:08:12.091Z,1017.85
2017-06-09T03:09:13.964Z,1017.86
2017-06-09T03:10:28.112Z,1017.89
2017-06-09T03:11:29.995Z,1017.92
2017-06-09T03:12:31.860Z,1017.93
2017-06-09T03:13:33.730Z,1018.02
2017-06-09T03:14:35.557Z,1018.02
2017-06-09T03:15:37.364Z,1018.05
2017-06-09T03:16:39.234Z,1018.12
2017-06-09T03:17:41.101Z,1018.14
2017-06-09T03:18:42.966Z,1018.11
2017-06-09T03:19:57.109Z,1018.15
2017-06-09T03:20:58.978Z,1018.23
2017-06-09T03:22:00.845Z,1018.18
2017-06-09T03:23:02.744Z,1018.24
2017-06-09T03:24:04.561Z,1018.24
2017-06-09T03:25:06.369Z,1018.25
2017-06-09T03:26:08.242Z,1018.28
2017-06-09T03:27:10.261Z,1018.29
2017-06-09T03:28:12.136Z,1018.31
2017-06-09T03:29:26.300Z,1018.35
2017-06-09T03:30:28.169Z,1018.40
2017-06-09T03:31:30.043Z,1018.41
2017-06-09T03:32:31.931Z,1018.48
2017-06-09T03:33:33.761Z,1018.48
2017-06-09T03:34:35.571Z,1018.49
2017-06-09T03:35:37.467Z,1018.50
2017-06-09T03:36:39.361Z,1018.50
2017-06-09T03:37:41.252Z,1018.51
2017-06-09T03:38:55.392Z,1018.54
2017-06-09T03:39:57.262Z,1018.57
2017-06-09T03:40:59.136Z,1018.55
2017-06-09T03:42:01.026Z,1018.47
2017-06-09T03:43:02.837Z,1018.53
2017-06-09T03:44:04.670Z,1018.58
2017-06-09T03:45:06.540Z,1018.59
2017-06-09T03:46:08.413Z,1018.55
2017-06-09T03:47:10.305Z,1018.62
2017-06-09T03:48:24.608Z,1018.62
2017-06-09T03:49:26.499Z,1018.61
2017-06-09T03:50:28.393Z,1018.64
2017-06-09T03:51:30.263Z,1018.62
2017-06-09T03:52:32.075Z,1018.66
2017-06-09T03:53:33.894Z,1018.65
2017-06-09T03:54:35.787Z,1018.63
2017-06-09T03:55:37.658Z,1018.64
2017-06-09T03:56:39.532Z,1018.63
2017-06-09T03:57:53.685Z,1018.67
2017-06-09T03:58:55.615Z,1018.62
2017-06-09T03:59:57.464Z,1018.68
2017-06-09T04:00:59.335Z,1018.61
2017-06-09T04:02:01.153Z,1018.65
2017-06-09T04:03:02.990Z,1018.59
2017-06-09T04:04:04.870Z,1018.55
2017-06-09T04:05:06.764Z,1018.57
2017-06-09T04:06:08.635Z,1018.57
2017-06-09T04:07:22.784Z,1018.51
2017-06-09T04:08:24.659Z,1018.52
2017-06-09T04:09:26.530Z,1018.53
2017-06-09T04:10:28.408Z,1018.50
2017-06-09T04:11:30.246Z,1018.45
2017-06-09T04:12:32.073Z,1018.50
2017-06-09T04:13:33.949Z,1018.48
2017-06-09T04:14:35.824Z,1018.49
2017-06-09T04:15:37.704Z,1018.48
2017-06-09T04:16:51.876Z,1018.46
2017-06-09T04:17:53.772Z,1018.44
2017-06-09T04:18:55.648Z,1018.44
2017-06-09T04:19:57.545Z,1018.42
2017-06-09T04:20:59.365Z,1018.41
2017-06-09T04:22:01.200Z,1018.42
2017-06-09T04:23:03.081Z,1018.45
2017-06-09T04:24:04.959Z,1018.44
2017-06-09T04:25:06.862Z,1018.45
2017-06-09T04:26:21.042Z,1018.46
2017-06-09T04:27:22.934Z,1018.43
2017-06-09T04:28:24.812Z,1018.43
2017-06-09T04:29:26.680Z,1018.45
2017-06-09T04:30:28.497Z,1018.43
2017-06-09T04:31:30.309Z,1018.39
2017-06-09T04:32:32.195Z,1018.42
2017-06-09T04:33:34.069Z,1018.43
2017-06-09T04:34:35.945Z,1018.45
2017-06-09T04:35:50.097Z,1018.42
2017-06-09T04:36:51.975Z,1018.40
2017-06-09T04:37:53.850Z,1018.36
2017-06-09T04:38:55.731Z,1018.35
2017-06-09T04:39:57.569Z,1018.36
2017-06-09T04:40:59.388Z,1018.40
2017-06-09T04:42:01.269Z,1018.44
2017-06-09T04:43:03.148Z,1018.42
2017-06-09T04:44:05.053Z,1018.46
2017-06-09T04:45:19.226Z,1018.51
2017-06-09T04:46:21.118Z,1018.54
2017-06-09T04:47:22.996Z,1018.57
2017-06-09T04:48:24.887Z,1018.56
2017-06-09T04:49:26.720Z,1018.57
2017-06-09T04:50:28.561Z,1018.59
2017-06-09T04:51:30.442Z,1018.62
2017-06-09T04:52:32.340Z,1018.60
2017-06-09T04:53:34.217Z,1018.64
2017-06-09T04:54:48.376Z,1018.71
2017-06-09T04:55:50.250Z,1018.79
2017-06-09T04:56:52.153Z,1018.73
2017-06-09T04:57:54.053Z,1018.75
2017-06-09T04:58:55.892Z,1018.75
2017-06-09T04:59:57.709Z,1018.69
2017-06-09T05:00:59.588Z,1018.71
2017-06-09T05:02:01.463Z,1018.87
2017-06-09T05:03:03.343Z,1018.85
2017-06-09T05:04:17.499Z,1018.84
2017-06-09T05:05:19.378Z,1018.83
2017-06-09T05:06:21.277Z,1018.85
2017-06-09T05:07:23.161Z,1018.89
2017-06-09T05:08:24.997Z,1018.86
2017-06-09T05:09:26.817Z,1018.81
2017-06-09T05:10:28.694Z,1018.74
2017-06-09T05:11:30.570Z,1018.68
2017-06-09T05:12:32.472Z,1018.61
2017-06-09T05:13:46.646Z,1018.59
2017-06-09T05:14:48.551Z,1018.64
2017-06-09T05:15:50.440Z,1018.59
2017-06-09T05:16:52.335Z,1018.57
2017-06-09T05:17:54.154Z,1018.64
2017-06-09T05:18:55.975Z,1018.61
2017-06-09T05:19:57.870Z,1018.51
2017-06-09T05:20:59.748Z,1018.45
2017-06-09T05:22:01.629Z,1018.28
2017-06-09T05:23:15.802Z,1018.16
2017-06-09T05:24:17.674Z,1018.14
2017-06-09T05:25:19.565Z,1018.10
2017-06-09T05:26:21.450Z,1018.13
2017-06-09T05:27:23.257Z,1018.10
2017-06-09T05:28:25.068Z,1018.08
2017-06-09T05:29:26.946Z,1018.13
2017-06-09T05:30:28.821Z,1018.08
2017-06-09T05:31:30.694Z,1018.06
2017-06-09T05:32:44.849Z,1018.02
2017-06-09T05:33:46.741Z,1018.01
2017-06-09T05:34:48.619Z,1018.02
2017-06-09T05:35:50.490Z,1017.97
2017-06-09T05:36:52.302Z,1017.93
2017-06-09T05:37:54.115Z,1017.92
2017-06-09T05:38:55.992Z,1017.95
2017-06-09T05:39:57.860Z,1017.95
2017-06-09T05:40:59.737Z,1017.98
2017-06-09T05:42:13.902Z,1018.01
2017-06-09T05:43:15.774Z,1017.94
2017-06-09T05:44:17.646Z,1017.96
2017-06-09T05:45:19.516Z,1017.99
2017-06-09T05:46:21.328Z,1017.95
2017-06-09T05:47:23.139Z,1017.96
2017-06-09T05:48:25.013Z,1017.96
2017-06-09T05:49:27.030Z,1017.93
2017-06-09T05:50:28.907Z,1017.91
2017-06-09T05:51:43.073Z,1017.91
2017-06-09T05:52:44.942Z,1017.91
2017-06-09T05:53:46.816Z,1017.89
2017-06-09T05:54:48.706Z,1017.87
2017-06-09T05:55:50.520Z,1017.87
2017-06-09T05:56:52.335Z,1017.88
2017-06-09T05:57:54.230Z,1017.89
2017-06-09T05:58:56.124Z,1017.89
2017-06-09T05:59:57.990Z,1017.83
2017-06-09T06:01:12.143Z,1017.85
2017-06-09T06:02:14.029Z,1017.86
2017-06-09T06:03:15.905Z,1017.87
2017-06-09T06:04:17.799Z,1017.85
2017-06-09T06:05:19.635Z,1017.84
2017-06-09T06:06:21.444Z,1017.86
2017-06-09T06:07:23.318Z,1017.85
2017-06-09T06:08:25.208Z,1017.86
2017-06-09T06:09:27.077Z,1017.83
2017-06-09T06:10:41.230Z,1017.82
2017-06-09T06:11:43.125Z,1017.83
2017-06-09T06:12:45.016Z,1017.78
2017-06-09T06:13:46.885Z,1017.80
2017-06-09T06:14:48.700Z,1017.77
2017-06-09T06:15:50.510Z,1017.76
2017-06-09T06:16:52.401Z,1017.74
2017-06-09T06:17:54.271Z,1017.75
2017-06-09T06:18:56.139Z,1017.77
2017-06-09T06:20:10.285Z,1017.76
2017-06-09T06:21:12.166Z,1017.77
2017-06-09T06:22:14.044Z,1017.75
2017-06-09T06:23:15.919Z,1017.77
2017-06-09T06:24:17.748Z,1017.77
2017-06-09T06:25:19.561Z,1017.75
2017-06-09T06:26:21.454Z,1017.78
2017-06-09T06:27:23.349Z,1017.77
2017-06-09T06:28:25.218Z,1017.83
2017-06-09T06:29:39.364Z,1017.79
2017-06-09T06:30:41.238Z,1017.84
2017-06-09T06:31:43.108Z,1017.90
2017-06-09T06:32:45.027Z,1017.89
2017-06-09T06:33:46.825Z,1017.93
2017-06-09T06:34:48.634Z,1017.95
2017-06-09T06:35:50.506Z,1017.95
2017-06-09T06:36:52.380Z,1017.96
2017-06-09T06:37:54.270Z,1017.95
2017-06-09T06:39:08.419Z,1017.94
2017-06-09T06:40:10.296Z,1017.97
2017-06-09T06:41:12.183Z,1017.96
2017-06-09T06:42:14.055Z,1017.99
2017-06-09T06:43:15.887Z,1018.00
2017-06-09T06:44:17.720Z,1017.98
2017-06-09T06:45:19.593Z,1017.96
2017-06-09T06:46:21.486Z,1017.95
2017-06-09T06:47:23.377Z,1018.01
2017-06-09T06:48:37.544Z,1017.98
2017-06-09T06:49:39.420Z,1018.00
2017-06-09T06:50:41.309Z,1018.04
2017-06-09T06:51:43.202Z,1017.95
2017-06-09T06:52:45.017Z,1017.95
2017-06-09T06:53:46.853Z,1017.96
2017-06-09T06:54:48.746Z,1018.00
2017-06-09T06:55:50.639Z,1017.99
2017-06-09T06:56:52.535Z,1017.97
2017-06-09T06:58:06.680Z,1017.97
2017-06-09T06:59:08.550Z,1018.00
2017-06-09T07:00:10.423Z,1018.00
2017-06-09T07:01:12.308Z,1018.05
2017-06-09T07:02:14.124Z,1018.03
2017-06-09T07:03:15.939Z,1017.98
2017-06-09T07:04:17.832Z,1017.96
2017-06-09T07:05:19.724Z,1017.97
2017-06-09T07:06:21.618Z,1018.01
2017-06-09T07:07:35.763Z,1017.97
2017-06-09T07:08:37.636Z,1017.99
2017-06-09T07:09:39.507Z,1018.02
2017-06-09T07:10:41.401Z,1017.98
2017-06-09T07:11:43.235Z,1018.02
2017-06-09T07:12:45.069Z,1017.99
2017-06-09T07:13:46.937Z,1017.97
2017-06-09T07:14:48.813Z,1017.96
2017-06-09T07:15:50.684Z,1017.96
2017-06-09T07:17:04.832Z,1017.96
2017-06-09T07:18:06.699Z,1017.92
2017-06-09T07:19:08.566Z,1017.91
2017-06-09T07:20:10.438Z,1017.93
2017-06-09T07:21:12.252Z,1017.92
2017-06-09T07:22:14.088Z,1017.97
2017-06-09T07:23:15.957Z,1017.93
2017-06-09T07:24:17.825Z,1017.93
2017-06-09T07:25:19.701Z,1017.93
2017-06-09T07:26:33.849Z,1017.91
2017-06-09T07:27:35.727Z,1017.93
2017-06-09T07:28:37.615Z,1017.92
2017-06-09T07:29:39.506Z,1017.90
2017-06-09T07:30:41.318Z,1017.89
2017-06-09T07:31:43.155Z,1017.89
2017-06-09T07:32:45.025Z,1017.94
2017-06-09T07:33:46.895Z,1017.95
2017-06-09T07:34:48.765Z,1017.96
2017-06-09T07:36:02.910Z,1017.89
2017-06-09T07:37:04.783Z,1017.87
2017-06-09T07:38:06.655Z,1017.87
2017-06-09T07:39:08.543Z,1017.84
2017-06-09T07:40:10.357Z,1017.82
2017-06-09T07:41:12.177Z,1017.82
2017-06-09T07:42:14.045Z,1017.80
2017-06-09T07:43:15.941Z,1017.76
2017-06-09T07:44:17.834Z,1017.76
2017-06-09T07:45:32.009Z,1017.74
2017-06-09T07:46:33.889Z,1017.78
2017-06-09T07:47:35.762Z,1017.80
2017-06-09T07:48:37.649Z,1017.74
2017-06-09T07:49:39.468Z,1017.74
2017-06-09T07:50:41.300Z,1017.78
2017-06-09T07:51:43.175Z,1017.77
2017-06-09T07:52:45.068Z,1017.76
2017-06-09T07:53:46.982Z,1017.74
2017-06-09T07:55:01.104Z,1017.71
2017-06-09T07:56:02.971Z,1017.72
2017-06-09T07:57:04.843Z,1017.66
2017-06-09T07:58:06.710Z,1017.68
2017-06-09T07:59:08.520Z,1017.64
2017-06-09T08:00:10.358Z,1017.70
2017-06-09T08:01:12.228Z,1017.62
2017-06-09T08:02:14.103Z,1017.61
2017-06-09T08:03:15.976Z,1017.62
2017-06-09T08:04:30.117Z,1017.61
2017-06-09T08:05:32.001Z,1017.57
2017-06-09T08:06:33.882Z,1017.62
2017-06-09T08:07:35.755Z,1017.57
2017-06-09T08:08:37.575Z,1017.56
2017-06-09T08:09:39.400Z,1017.56
2017-06-09T08:10:41.273Z,1017.56
2017-06-09T08:11:43.143Z,1017.47
2017-06-09T08:12:45.019Z,1017.56
2017-06-09T08:13:59.189Z,1017.53
2017-06-09T08:15:01.063Z,1017.53
2017-06-09T08:16:02.951Z,1017.52
2017-06-09T08:17:04.820Z,1017.55
2017-06-09T08:18:06.634Z,1017.54
2017-06-09T08:19:08.445Z,1017.56
2017-06-09T08:20:10.316Z,1017.55
2017-06-09T08:21:12.190Z,1017.59
2017-06-09T08:22:14.082Z,1017.52
2017-06-09T08:23:28.231Z,1017.53
2017-06-09T08:24:30.106Z,1017.51
2017-06-09T08:25:32.002Z,1017.50
2017-06-09T08:26:33.891Z,1017.50
2017-06-09T08:27:35.701Z,1017.49
2017-06-09T08:28:37.516Z,1017.57
2017-06-09T08:29:39.393Z,1017.54
2017-06-09T08:30:41.284Z,1017.49
2017-06-09T08:31:43.152Z,1017.42
2017-06-09T08:32:57.302Z,1017.44
2017-06-09T08:33:59.196Z,1017.45
2017-06-09T08:35:01.085Z,1017.42
2017-06-09T08:36:02.958Z,1017.40
2017-06-09T08:37:04.798Z,1017.44
2017-06-09T08:38:06.627Z,1017.44
2017-06-09T08:39:08.518Z,1017.39
2017-06-09T08:40:10.388Z,1017.37
2017-06-09T08:41:12.262Z,1017.35
2017-06-09T08:42:26.438Z,1017.38
2017-06-09T08:43:28.327Z,1017.44
2017-06-09T08:44:30.197Z,1017.37
2017-06-09T08:45:32.064Z,1017.34
2017-06-09T08:46:33.882Z,1017.38
2017-06-09T08:47:35.695Z,1017.39
2017-06-09T08:48:37.564Z,1017.37
2017-06-09T08:49:39.434Z,1017.37
2017-06-09T08:50:41.308Z,1017.40
2017-06-09T08:51:55.452Z,1017.40
2017-06-09T08:52:57.345Z,1017.39
2017-06-09T08:53:59.214Z,1017.41
2017-06-09T08:55:01.107Z,1017.42
2017-06-09T08:56:02.947Z,1017.45
2017-06-09T08:57:04.775Z,1017.39
2017-06-09T08:58:06.679Z,1017.47
2017-06-09T08:59:08.527Z,1017.43
2017-06-09T09:00:10.400Z,1017.39
2017-06-09T09:01:24.573Z,1017.39
2017-06-09T09:02:26.438Z,1017.40
2017-06-09T09:03:28.309Z,1017.35
2017-06-09T09:04:30.184Z,1017.39
2017-06-09T09:05:31.990Z,1017.34
2017-06-09T09:06:33.810Z,1017.39
2017-06-09T09:07:35.683Z,1017.39
2017-06-09T09:08:37.572Z,1017.43
2017-06-09T09:09:39.444Z,1017.50
2017-06-09T09:10:53.597Z,1017.44
2017-06-09T09:11:55.488Z,1017.52
2017-06-09T09:12:57.384Z,1017.47
2017-06-09T09:13:59.273Z,1017.48
2017-06-09T09:15:01.081Z,1017.49
2017-06-09T09:16:02.892Z,1017.52
2017-06-09T09:17:04.767Z,1017.41
2017-06-09T09:18:06.642Z,1017.42
2017-06-09T09:19:08.531Z,1017.41
2017-06-09T09:20:22.680Z,1017.42
2017-06-09T09:21:24.546Z,1017.40
2017-06-09T09:22:26.417Z,1017.41
2017-06-09T09:23:28.291Z,1017.43
2017-06-09T09:24:30.124Z,1017.42
2017-06-09T09:25:31.938Z,1017.42
2017-06-09T09:26:33.809Z,1017.37
2017-06-09T09:27:35.685Z,1017.42
2017-06-09T09:28:37.553Z,1017.41
2017-06-09T09:29:51.705Z,1017.38
2017-06-09T09:30:53.593Z,1017.39
2017-06-09T09:31:55.467Z,1017.36
2017-06-09T09:32:57.342Z,1017.36
2017-06-09T09:33:59.178Z,1017.40
2017-06-09T09:35:00.992Z,1017.38
2017-06-09T09:36:02.866Z,1017.38
2017-06-09T09:37:04.758Z,1017.41
2017-06-09T09:38:06.650Z,1017.43
2017-06-09T09:39:20.803Z,1017.37
2017-06-09T09:40:22.676Z,1017.44
2017-06-09T09:41:24.542Z,1017.42
2017-06-09T09:42:26.418Z,1017.40
2017-06-09T09:43:28.254Z,1017.41
2017-06-09T09:44:30.082Z,1017.41
2017-06-09T09:45:31.957Z,1017.38
2017-06-09T09:46:33.862Z,1017.38
2017-06-09T09:47:35.749Z,1017.36
2017-06-09T09:48:49.900Z,1017.37
2017-06-09T09:49:51.792Z,1017.36
2017-06-09T09:50:53.666Z,1017.37
2017-06-09T09:51:55.537Z,1017.28
2017-06-09T09:52:57.366Z,1017.26
2017-06-09T09:53:59.181Z,1017.25
2017-06-09T09:55:01.079Z,1017.22
2017-06-09T09:56:02.976Z,1017.21
2017-06-09T09:57:04.870Z,1017.16
2017-06-09T09:58:19.016Z,1017.10
2017-06-09T09:59:20.897Z,1017.10
2017-06-09T10:00:22.787Z,1017.04
2017-06-09T10:01:24.678Z,1017.01
2017-06-09T10:02:26.514Z,1016.96
2017-06-09T10:03:28.345Z,1016.88
2017-06-09T10:04:30.221Z,1016.91
2017-06-09T10:05:32.117Z,1016.90
2017-06-09T10:06:34.014Z,1016.86
2017-06-09T10:07:48.186Z,1016.84
2017-06-09T10:08:50.082Z,1016.82
2017-06-09T10:09:51.973Z,1016.77
2017-06-09T10:10:53.845Z,1016.81
2017-06-09T10:11:55.663Z,1016.78
2017-06-09T10:12:57.495Z,1016.80
2017-06-09T10:13:59.370Z,1016.89
2017-06-09T10:15:01.267Z,1016.84
2017-06-09T10:16:03.157Z,1016.85
2017-06-09T10:17:17.308Z,1016.89
2017-06-09T10:18:19.198Z,1016.81
2017-06-09T10:19:21.073Z,1016.80
2017-06-09T10:20:22.972Z,1016.81
2017-06-09T10:21:24.805Z,1016.81
2017-06-09T10:22:26.784Z,1016.78
2017-06-09T10:23:28.661Z,1016.80
2017-06-09T10:24:30.532Z,1016.72
2017-06-09T10:25:32.403Z,1016.71
2017-06-09T10:26:46.553Z,1016.63
2017-06-09T10:27:48.424Z,1016.60
2017-06-09T10:28:50.294Z,1016.67
2017-06-09T10:29:52.167Z,1016.62
2017-06-09T10:30:54.003Z,1016.60
2017-06-09T10:31:55.834Z,1016.59
2017-06-09T10:32:57.715Z,1016.59
2017-06-09T10:33:59.606Z,1016.55
2017-06-09T10:35:01.479Z,1016.53
2017-06-09T10:36:15.647Z,1016.48
2017-06-09T10:37:17.521Z,1016.46
2017-06-09T10:38:19.394Z,1016.44
2017-06-09T10:39:21.288Z,1016.41
2017-06-09T10:40:23.121Z,1016.46
2017-06-09T10:41:24.941Z,1016.43
2017-06-09T10:42:26.830Z,1016.45
2017-06-09T10:43:28.704Z,1016.41
2017-06-09T10:44:30.573Z,1016.35
2017-06-09T10:45:44.768Z,1016.41
2017-06-09T10:46:46.644Z,1016.45
2017-06-09T10:47:48.537Z,1016.38
2017-06-09T10:48:50.407Z,1016.40
2017-06-09T10:49:52.227Z,1016.43
2017-06-09T10:50:54.065Z,1016.38
2017-06-09T10:51:55.955Z,1016.38
2017-06-09T10:52:57.848Z,1016.37
2017-06-09T10:53:59.725Z,1016.32
2017-06-09T10:55:13.870Z,1016.35
2017-06-09T10:56:15.744Z,1016.36
2017-06-09T10:57:17.635Z,1016.17
2017-06-09T10:58:19.528Z,1016.23
2017-06-09T10:59:21.335Z,1016.21
2017-06-09T11:00:23.146Z,1016.29
2017-06-09T11:01:25.020Z,1016.27
2017-06-09T11:02:26.917Z,1016.24
2017-06-09T11:03:28.815Z,1016.25
2017-06-09T11:04:42.981Z,1016.27
2017-06-09T11:05:44.856Z,1016.22
2017-06-09T11:07:16.398Z,1016.22
2017-06-09T11:08:18.287Z,1016.19
2017-06-09T11:09:20.100Z,1016.18
2017-06-09T11:10:21.912Z,1016.18
2017-06-09T11:11:23.786Z,1016.22
2017-06-09T11:12:25.679Z,1016.18
2017-06-09T11:13:27.565Z,1016.13
2017-06-09T11:14:41.756Z,1016.15
2017-06-09T11:15:43.627Z,1016.19
2017-06-09T11:16:45.513Z,1016.13
2017-06-09T11:17:47.385Z,1016.13
2017-06-09T11:18:49.197Z,1016.08
2017-06-09T11:19:51.024Z,1016.17
2017-06-09T11:20:52.888Z,1016.09
2017-06-09T11:21:54.764Z,1016.08
2017-06-09T11:22:56.633Z,1016.08
2017-06-09T11:24:10.796Z,1016.08
2017-06-09T11:25:12.664Z,1016.02
2017-06-09T11:26:14.539Z,1016.08
2017-06-09T11:27:16.422Z,1016.06
2017-06-09T11:28:18.233Z,1016.05
2017-06-09T11:29:20.045Z,1016.05
2017-06-09T11:30:21.912Z,1016.00
2017-06-09T11:31:23.809Z,1016.04
2017-06-09T11:32:25.697Z,1016.05
2017-06-09T11:33:39.888Z,1015.99
2017-06-09T11:34:41.755Z,1016.07
2017-06-09T11:35:43.628Z,1016.02
2017-06-09T11:36:45.518Z,1015.97
2017-06-09T11:37:47.349Z,1015.95
2017-06-09T11:38:49.179Z,1015.91
2017-06-09T11:39:51.069Z,1015.95
2017-06-09T11:40:52.962Z,1016.00
2017-06-09T11:41:54.854Z,1015.96
2017-06-09T11:43:09.065Z,1015.97
2017-06-09T11:44:10.955Z,1015.98
2017-06-09T11:45:12.819Z,1015.96
2017-06-09T11:46:14.682Z,1015.94
2017-06-09T11:47:16.508Z,1015.88
2017-06-09T11:48:18.339Z,1015.85
2017-06-09T11:49:20.228Z,1015.83
2017-06-09T11:50:22.100Z,1015.82
2017-06-09T11:51:23.977Z,1015.82
2017-06-09T11:52:38.140Z,1015.88
2017-06-09T11:53:40.030Z,1015.89
2017-06-09T11:54:41.898Z,1015.87
2017-06-09T11:55:43.762Z,1015.93
2017-06-09T11:56:45.572Z,1015.93
2017-06-09T11:57:47.389Z,1015.98
2017-06-09T11:58:49.287Z,1015.95
2017-06-09T11:59:51.200Z,1015.98
2017-06-09T12:00:53.099Z,1016.04
2017-06-09T12:02:07.376Z,1015.99
2017-06-09T12:03:09.268Z,1015.95
2017-06-09T12:04:11.160Z,1015.95
2017-06-09T12:05:13.081Z,1015.96
2017-06-09T12:06:14.947Z,1016.04
2017-06-09T12:07:16.784Z,1016.03
2017-06-09T12:08:18.668Z,1015.96
2017-06-09T12:09:20.566Z,1015.99
2017-06-09T12:10:22.475Z,1016.08
2017-06-09T12:11:36.700Z,1016.11
2017-06-09T12:12:38.581Z,1016.10
2017-06-09T12:13:40.512Z,1016.14
2017-06-09T12:14:42.399Z,1016.15
2017-06-09T12:15:44.247Z,1016.11
2017-06-09T12:16:46.058Z,1016.09
2017-06-09T12:17:47.953Z,1016.09
2017-06-09T12:18:49.847Z,1016.05
2017-06-09T12:19:51.747Z,1016.04
2017-06-09T12:21:06.011Z,1016.07
2017-06-09T12:22:07.923Z,1016.06
2017-06-09T12:23:09.831Z,1016.12
2017-06-09T12:24:11.734Z,1016.16
2017-06-09T12:25:13.575Z,1016.10
2017-06-09T12:26:15.394Z,1016.14
2017-06-09T12:27:17.290Z,1016.16
2017-06-09T12:28:19.185Z,1016.16
2017-06-09T12:29:21.058Z,1016.18
2017-06-09T12:30:35.227Z,1016.16
2017-06-09T12:31:37.100Z,1016.11
2017-06-09T12:32:38.992Z,1016.10
2017-06-09T12:33:40.887Z,1016.08
2017-06-09T12:34:42.722Z,1016.06
2017-06-09T12:35:44.530Z,1016.06
2017-06-09T12:36:46.404Z,1016.11
2017-06-09T12:37:48.294Z,1016.07
2017-06-09T12:38:50.162Z,1016.05
2017-06-09T12:40:04.309Z,1015.97
2017-06-09T12:41:06.183Z,1015.97
2017-06-09T12:42:08.072Z,1015.93
2017-06-09T12:43:09.947Z,1015.90
2017-06-09T12:44:11.782Z,1015.86
2017-06-09T12:45:13.615Z,1015.85